sensor_id;sensor_type;location;lat;lon;timestamp;P1;durP1;ratioP1;P2;durP2;ratioP2
78674;SDS011;67990;59.826;30.108;2023-05-10T00:00:13;39.22;;;15.90;;
78674;SDS011;67990;59.826;30.108;2023-05-10T00:02:42;37.97;;;14.93;;
78674;SDS011;67990;59.826;30.108;2023-05-10T00:05:11;37.38;;;14.70;;
78674;SDS011;67990;59.826;30.108;2023-05-10T00:10:23;40.38;;;13.23;;
78674;SDS011;67990;59.826;30.108;2023-05-10T00:12:50;40.20;;;14.20;;
78674;SDS011;67990;59.826;30.108;2023-05-10T00:15:18;39.13;;;14.63;;
78674;SDS011;67990;59.826;30.108;2023-05-10T00:18:03;30.67;;;13.15;;
78674;SDS011;67990;59.826;30.108;2023-05-10T00:20:32;38.50;;;12.67;;
78674;SDS011;67990;59.826;30.108;2023-05-10T00:22:59;34.83;;;12.55;;
78674;SDS011;67990;59.826;30.108;2023-05-10T00:25:45;29.20;;;12.98;;
78674;SDS011;67990;59.826;30.108;2023-05-10T00:28:31;35.90;;;12.50;;
78674;SDS011;67990;59.826;30.108;2023-05-10T00:30:58;28.80;;;11.38;;
78674;SDS011;67990;59.826;30.108;2023-05-10T00:33:25;32.43;;;13.30;;
78674;SDS011;67990;59.826;30.108;2023-05-10T00:38:40;36.25;;;11.88;;
78674;SDS011;67990;59.826;30.108;2023-05-10T00:41:26;31.17;;;12.65;;
78674;SDS011;67990;59.826;30.108;2023-05-10T00:43:53;35.42;;;12.48;;
78674;SDS011;67990;59.826;30.108;2023-05-10T00:46:21;28.43;;;12.10;;
78674;SDS011;67990;59.826;30.108;2023-05-10T00:48:48;31.95;;;11.90;;
78674;SDS011;67990;59.826;30.108;2023-05-10T00:51:17;31.55;;;11.65;;
78674;SDS011;67990;59.826;30.108;2023-05-10T00:53:44;30.88;;;11.32;;
78674;SDS011;67990;59.826;30.108;2023-05-10T00:56:30;40.13;;;11.32;;
78674;SDS011;67990;59.826;30.108;2023-05-10T00:58:58;34.20;;;12.27;;
78674;SDS011;67990;59.826;30.108;2023-05-10T01:01:26;28.02;;;11.73;;
78674;SDS011;67990;59.826;30.108;2023-05-10T01:04:12;31.85;;;11.73;;
78674;SDS011;67990;59.826;30.108;2023-05-10T01:06:42;30.25;;;11.32;;
78674;SDS011;67990;59.826;30.108;2023-05-10T01:15:00;31.55;;;12.05;;
78674;SDS011;67990;59.826;30.108;2023-05-10T01:17:29;30.02;;;11.32;;
78674;SDS011;67990;59.826;30.108;2023-05-10T01:20:15;28.95;;;10.93;;
78674;SDS011;67990;59.826;30.108;2023-05-10T01:22:49;30.95;;;10.80;;
78674;SDS011;67990;59.826;30.108;2023-05-10T01:32:12;28.45;;;10.75;;
78674;SDS011;67990;59.826;30.108;2023-05-10T01:34:52;26.70;;;10.20;;
78674;SDS011;67990;59.826;30.108;2023-05-10T01:37:27;26.58;;;10.18;;
78674;SDS011;67990;59.826;30.108;2023-05-10T01:40:00;27.30;;;9.83;;
78674;SDS011;67990;59.826;30.108;2023-05-10T01:45:37;25.38;;;10.25;;
78674;SDS011;67990;59.826;30.108;2023-05-10T01:48:10;23.73;;;9.18;;
78674;SDS011;67990;59.826;30.108;2023-05-10T01:50:39;29.42;;;9.68;;
78674;SDS011;67990;59.826;30.108;2023-05-10T01:53:10;24.53;;;9.50;;
78674;SDS011;67990;59.826;30.108;2023-05-10T01:55:41;23.58;;;8.75;;
78674;SDS011;67990;59.826;30.108;2023-05-10T01:58:13;21.95;;;9.20;;
78674;SDS011;67990;59.826;30.108;2023-05-10T02:01:00;23.13;;;8.65;;
78674;SDS011;67990;59.826;30.108;2023-05-10T02:03:48;24.15;;;8.93;;
78674;SDS011;67990;59.826;30.108;2023-05-10T02:06:53;26.43;;;8.33;;
78674;SDS011;67990;59.826;30.108;2023-05-10T02:09:22;24.85;;;8.73;;
78674;SDS011;67990;59.826;30.108;2023-05-10T02:12:08;24.13;;;8.25;;
78674;SDS011;67990;59.826;30.108;2023-05-10T02:14:54;19.73;;;8.20;;
78674;SDS011;67990;59.826;30.108;2023-05-10T02:17:22;21.27;;;7.82;;
78674;SDS011;67990;59.826;30.108;2023-05-10T02:19:52;18.97;;;6.77;;
78674;SDS011;67990;59.826;30.108;2023-05-10T02:22:20;19.52;;;7.28;;
78674;SDS011;67990;59.826;30.108;2023-05-10T02:25:07;18.55;;;7.50;;
78674;SDS011;67990;59.826;30.108;2023-05-10T02:27:37;18.88;;;7.40;;
78674;SDS011;67990;59.826;30.108;2023-05-10T02:33:11;19.97;;;6.33;;
78674;SDS011;67990;59.826;30.108;2023-05-10T02:35:41;16.50;;;6.10;;
78674;SDS011;67990;59.826;30.108;2023-05-10T02:38:09;16.25;;;6.55;;
78674;SDS011;67990;59.826;30.108;2023-05-10T02:40:38;15.50;;;6.50;;
78674;SDS011;67990;59.826;30.108;2023-05-10T02:43:09;15.07;;;6.88;;
78674;SDS011;67990;59.826;30.108;2023-05-10T02:45:40;16.30;;;6.80;;
78674;SDS011;67990;59.826;30.108;2023-05-10T02:48:09;18.65;;;6.28;;
78674;SDS011;67990;59.826;30.108;2023-05-10T02:50:56;17.52;;;6.80;;
78674;SDS011;67990;59.826;30.108;2023-05-10T02:53:49;14.70;;;6.35;;
78674;SDS011;67990;59.826;30.108;2023-05-10T02:56:20;17.60;;;6.57;;
78674;SDS011;67990;59.826;30.108;2023-05-10T02:58:51;18.93;;;6.17;;
78674;SDS011;67990;59.826;30.108;2023-05-10T03:01:19;17.10;;;6.25;;
78674;SDS011;67990;59.826;30.108;2023-05-10T03:03:46;18.80;;;6.65;;
78674;SDS011;67990;59.826;30.108;2023-05-10T03:06:14;15.52;;;6.10;;
78674;SDS011;67990;59.826;30.108;2023-05-10T03:08:42;16.60;;;6.28;;
78674;SDS011;67990;59.826;30.108;2023-05-10T03:11:23;14.17;;;6.50;;
78674;SDS011;67990;59.826;30.108;2023-05-10T03:14:07;15.85;;;6.10;;
78674;SDS011;67990;59.826;30.108;2023-05-10T03:16:40;14.23;;;6.00;;
78674;SDS011;67990;59.826;30.108;2023-05-10T03:19:14;15.45;;;6.35;;
78674;SDS011;67990;59.826;30.108;2023-05-10T03:21:47;13.00;;;5.55;;
78674;SDS011;67990;59.826;30.108;2023-05-10T03:24:20;16.57;;;6.23;;
78674;SDS011;67990;59.826;30.108;2023-05-10T03:26:49;16.75;;;6.20;;
78674;SDS011;67990;59.826;30.108;2023-05-10T03:29:38;19.35;;;6.57;;
78674;SDS011;67990;59.826;30.108;2023-05-10T03:32:42;13.30;;;6.60;;
78674;SDS011;67990;59.826;30.108;2023-05-10T03:35:10;15.68;;;6.15;;
78674;SDS011;67990;59.826;30.108;2023-05-10T03:40:27;13.85;;;5.97;;
78674;SDS011;67990;59.826;30.108;2023-05-10T03:45:43;12.60;;;6.32;;
78674;SDS011;67990;59.826;30.108;2023-05-10T03:48:10;16.70;;;6.90;;
78674;SDS011;67990;59.826;30.108;2023-05-10T03:50:55;14.67;;;6.57;;
78674;SDS011;67990;59.826;30.108;2023-05-10T03:53:25;16.63;;;6.70;;
78674;SDS011;67990;59.826;30.108;2023-05-10T03:55:52;13.50;;;7.05;;
78674;SDS011;67990;59.826;30.108;2023-05-10T03:58:20;21.33;;;7.47;;
78674;SDS011;67990;59.826;30.108;2023-05-10T04:00:47;17.17;;;6.72;;
78674;SDS011;67990;59.826;30.108;2023-05-10T04:03:32;11.73;;;6.93;;
78674;SDS011;67990;59.826;30.108;2023-05-10T04:06:00;14.93;;;6.57;;
78674;SDS011;67990;59.826;30.108;2023-05-10T04:08:30;19.53;;;6.87;;
78674;SDS011;67990;59.826;30.108;2023-05-10T04:11:04;10.93;;;6.30;;
78674;SDS011;67990;59.826;30.108;2023-05-10T04:16:18;20.95;;;6.68;;
78674;SDS011;67990;59.826;30.108;2023-05-10T04:18:45;13.32;;;7.07;;
78674;SDS011;67990;59.826;30.108;2023-05-10T04:21:13;15.40;;;7.90;;
78674;SDS011;67990;59.826;30.108;2023-05-10T04:24:00;14.30;;;7.27;;
78674;SDS011;67990;59.826;30.108;2023-05-10T04:26:27;14.23;;;7.35;;
78674;SDS011;67990;59.826;30.108;2023-05-10T04:32:17;13.43;;;7.05;;
78674;SDS011;67990;59.826;30.108;2023-05-10T04:35:21;12.63;;;7.75;;
78674;SDS011;67990;59.826;30.108;2023-05-10T04:37:48;10.65;;;8.02;;
78674;SDS011;67990;59.826;30.108;2023-05-10T04:40:17;15.63;;;8.63;;
78674;SDS011;67990;59.826;30.108;2023-05-10T04:42:45;12.40;;;8.73;;
78674;SDS011;67990;59.826;30.108;2023-05-10T04:45:12;20.00;;;12.10;;
78674;SDS011;67990;59.826;30.108;2023-05-10T04:47:40;17.20;;;12.07;;
78674;SDS011;67990;59.826;30.108;2023-05-10T04:50:07;14.40;;;8.90;;
78674;SDS011;67990;59.826;30.108;2023-05-10T04:52:34;14.98;;;8.88;;
78674;SDS011;67990;59.826;30.108;2023-05-10T04:55:01;10.55;;;6.80;;
78674;SDS011;67990;59.826;30.108;2023-05-10T04:57:30;12.07;;;7.20;;
78674;SDS011;67990;59.826;30.108;2023-05-10T05:06:05;9.90;;;6.32;;
78674;SDS011;67990;59.826;30.108;2023-05-10T05:08:50;7.90;;;6.43;;
78674;SDS011;67990;59.826;30.108;2023-05-10T05:11:17;11.30;;;6.80;;
78674;SDS011;67990;59.826;30.108;2023-05-10T05:14:22;8.00;;;5.88;;
78674;SDS011;67990;59.826;30.108;2023-05-10T05:16:50;8.50;;;6.40;;
78674;SDS011;67990;59.826;30.108;2023-05-10T05:19:17;8.50;;;5.87;;
78674;SDS011;67990;59.826;30.108;2023-05-10T05:22:01;7.68;;;6.53;;
78674;SDS011;67990;59.826;30.108;2023-05-10T05:24:46;9.57;;;6.75;;
78674;SDS011;67990;59.826;30.108;2023-05-10T05:27:13;8.43;;;5.72;;
78674;SDS011;67990;59.826;30.108;2023-05-10T05:29:41;7.97;;;7.28;;
78674;SDS011;67990;59.826;30.108;2023-05-10T05:32:28;7.67;;;6.90;;
78674;SDS011;67990;59.826;30.108;2023-05-10T05:34:55;9.63;;;6.77;;
78674;SDS011;67990;59.826;30.108;2023-05-10T05:37:22;8.55;;;6.55;;
78674;SDS011;67990;59.826;30.108;2023-05-10T05:39:49;8.82;;;6.75;;
78674;SDS011;67990;59.826;30.108;2023-05-10T05:45:05;8.18;;;6.28;;
78674;SDS011;67990;59.826;30.108;2023-05-10T05:47:34;7.83;;;5.97;;
78674;SDS011;67990;59.826;30.108;2023-05-10T05:50:01;8.98;;;6.20;;
78674;SDS011;67990;59.826;30.108;2023-05-10T05:52:29;8.27;;;5.70;;
78674;SDS011;67990;59.826;30.108;2023-05-10T05:55:15;7.75;;;5.32;;
78674;SDS011;67990;59.826;30.108;2023-05-10T05:58:00;11.38;;;6.70;;
78674;SDS011;67990;59.826;30.108;2023-05-10T06:00:28;7.87;;;5.93;;
78674;SDS011;67990;59.826;30.108;2023-05-10T06:03:14;8.83;;;6.40;;
78674;SDS011;67990;59.826;30.108;2023-05-10T06:05:42;7.65;;;6.10;;
78674;SDS011;67990;59.826;30.108;2023-05-10T06:08:09;8.68;;;6.47;;
78674;SDS011;67990;59.826;30.108;2023-05-10T06:10:36;7.60;;;5.90;;
78674;SDS011;67990;59.826;30.108;2023-05-10T06:13:21;8.02;;;6.65;;
78674;SDS011;67990;59.826;30.108;2023-05-10T06:15:50;6.73;;;6.03;;
78674;SDS011;67990;59.826;30.108;2023-05-10T06:18:17;7.50;;;5.33;;
78674;SDS011;67990;59.826;30.108;2023-05-10T06:20:44;8.43;;;6.05;;
78674;SDS011;67990;59.826;30.108;2023-05-10T06:23:29;7.53;;;6.32;;
78674;SDS011;67990;59.826;30.108;2023-05-10T06:26:14;8.63;;;6.63;;
78674;SDS011;67990;59.826;30.108;2023-05-10T06:28:41;7.10;;;6.40;;
78674;SDS011;67990;59.826;30.108;2023-05-10T06:31:09;7.20;;;6.03;;
78674;SDS011;67990;59.826;30.108;2023-05-10T06:33:37;8.33;;;5.87;;
78674;SDS011;67990;59.826;30.108;2023-05-10T06:36:05;10.93;;;5.40;;
78674;SDS011;67990;59.826;30.108;2023-05-10T06:38:32;9.23;;;6.20;;
78674;SDS011;67990;59.826;30.108;2023-05-10T06:40:59;9.20;;;5.97;;
78674;SDS011;67990;59.826;30.108;2023-05-10T06:43:26;8.25;;;6.32;;
78674;SDS011;67990;59.826;30.108;2023-05-10T06:45:55;8.40;;;6.70;;
78674;SDS011;67990;59.826;30.108;2023-05-10T06:48:23;8.00;;;6.55;;
78674;SDS011;67990;59.826;30.108;2023-05-10T06:50:50;10.98;;;6.40;;
78674;SDS011;67990;59.826;30.108;2023-05-10T06:53:18;10.40;;;7.05;;
78674;SDS011;67990;59.826;30.108;2023-05-10T06:55:45;9.57;;;7.28;;
78674;SDS011;67990;59.826;30.108;2023-05-10T06:58:12;8.23;;;6.27;;
78674;SDS011;67990;59.826;30.108;2023-05-10T07:00:39;14.63;;;5.35;;
78674;SDS011;67990;59.826;30.108;2023-05-10T07:03:09;8.10;;;6.40;;
78674;SDS011;67990;59.826;30.108;2023-05-10T07:05:37;7.03;;;6.22;;
78674;SDS011;67990;59.826;30.108;2023-05-10T07:08:23;11.13;;;6.10;;
78674;SDS011;67990;59.826;30.108;2023-05-10T07:11:09;7.53;;;6.27;;
78674;SDS011;67990;59.826;30.108;2023-05-10T07:13:54;9.60;;;6.40;;
78674;SDS011;67990;59.826;30.108;2023-05-10T07:16:40;9.25;;;6.57;;
78674;SDS011;67990;59.826;30.108;2023-05-10T07:19:25;8.23;;;5.65;;
78674;SDS011;67990;59.826;30.108;2023-05-10T07:21:53;9.85;;;6.53;;
78674;SDS011;67990;59.826;30.108;2023-05-10T07:24:21;10.67;;;5.33;;
78674;SDS011;67990;59.826;30.108;2023-05-10T07:27:07;7.47;;;6.20;;
78674;SDS011;67990;59.826;30.108;2023-05-10T07:29:34;6.78;;;5.57;;
78674;SDS011;67990;59.826;30.108;2023-05-10T07:32:19;7.43;;;6.50;;
78674;SDS011;67990;59.826;30.108;2023-05-10T07:35:05;9.05;;;6.57;;
78674;SDS011;67990;59.826;30.108;2023-05-10T07:37:34;7.18;;;5.43;;
78674;SDS011;67990;59.826;30.108;2023-05-10T07:40:04;9.23;;;5.37;;
78674;SDS011;67990;59.826;30.108;2023-05-10T07:42:32;6.55;;;5.03;;
78674;SDS011;67990;59.826;30.108;2023-05-10T07:45:17;6.60;;;5.72;;
78674;SDS011;67990;59.826;30.108;2023-05-10T07:48:03;8.02;;;4.90;;
78674;SDS011;67990;59.826;30.108;2023-05-10T07:50:30;8.27;;;6.18;;
78674;SDS011;67990;59.826;30.108;2023-05-10T07:53:17;6.87;;;4.43;;
78674;SDS011;67990;59.826;30.108;2023-05-10T07:58:49;7.80;;;5.22;;
78674;SDS011;67990;59.826;30.108;2023-05-10T08:07:05;9.03;;;4.90;;
78674;SDS011;67990;59.826;30.108;2023-05-10T08:09:34;6.40;;;4.65;;
78674;SDS011;67990;59.826;30.108;2023-05-10T08:12:19;8.05;;;5.07;;
78674;SDS011;67990;59.826;30.108;2023-05-10T08:14:46;8.55;;;4.93;;
78674;SDS011;67990;59.826;30.108;2023-05-10T08:17:14;9.13;;;4.13;;
78674;SDS011;67990;59.826;30.108;2023-05-10T08:20:17;7.73;;;4.53;;
78674;SDS011;67990;59.826;30.108;2023-05-10T08:23:01;6.43;;;3.97;;
78674;SDS011;67990;59.826;30.108;2023-05-10T08:25:30;6.35;;;4.38;;
78674;SDS011;67990;59.826;30.108;2023-05-10T08:30:43;5.45;;;4.63;;
78674;SDS011;67990;59.826;30.108;2023-05-10T08:33:29;6.95;;;4.55;;
78674;SDS011;67990;59.826;30.108;2023-05-10T08:36:13;6.70;;;4.10;;
78674;SDS011;67990;59.826;30.108;2023-05-10T08:38:58;7.72;;;4.25;;
78674;SDS011;67990;59.826;30.108;2023-05-10T08:41:26;8.40;;;3.72;;
78674;SDS011;67990;59.826;30.108;2023-05-10T08:43:55;5.90;;;3.83;;
78674;SDS011;67990;59.826;30.108;2023-05-10T08:46:22;5.15;;;3.65;;
78674;SDS011;67990;59.826;30.108;2023-05-10T08:48:51;6.63;;;4.07;;
78674;SDS011;67990;59.826;30.108;2023-05-10T08:51:55;7.33;;;4.60;;
78674;SDS011;67990;59.826;30.108;2023-05-10T08:57:28;7.70;;;4.03;;
78674;SDS011;67990;59.826;30.108;2023-05-10T08:59:55;6.03;;;3.70;;
78674;SDS011;67990;59.826;30.108;2023-05-10T09:02:23;11.75;;;3.33;;
78674;SDS011;67990;59.826;30.108;2023-05-10T09:04:50;6.00;;;3.20;;
78674;SDS011;67990;59.826;30.108;2023-05-10T09:07:18;12.30;;;3.87;;
78674;SDS011;67990;59.826;30.108;2023-05-10T09:10:04;7.30;;;3.38;;
78674;SDS011;67990;59.826;30.108;2023-05-10T09:15:21;6.78;;;3.10;;
78674;SDS011;67990;59.826;30.108;2023-05-10T09:18:05;5.68;;;3.30;;
78674;SDS011;67990;59.826;30.108;2023-05-10T09:20:32;5.23;;;2.50;;
78674;SDS011;67990;59.826;30.108;2023-05-10T09:22:59;6.67;;;2.87;;
78674;SDS011;67990;59.826;30.108;2023-05-10T09:25:26;8.82;;;2.70;;
78674;SDS011;67990;59.826;30.108;2023-05-10T09:27:55;13.23;;;3.42;;
78674;SDS011;67990;59.826;30.108;2023-05-10T09:33:08;4.63;;;2.60;;
78674;SDS011;67990;59.826;30.108;2023-05-10T09:35:35;6.20;;;2.80;;
78674;SDS011;67990;59.826;30.108;2023-05-10T09:38:05;5.33;;;2.50;;
78674;SDS011;67990;59.826;30.108;2023-05-10T09:40:32;5.00;;;2.88;;
78674;SDS011;67990;59.826;30.108;2023-05-10T09:43:18;5.50;;;2.50;;
78674;SDS011;67990;59.826;30.108;2023-05-10T09:45:47;5.20;;;2.60;;
78674;SDS011;67990;59.826;30.108;2023-05-10T09:48:15;5.38;;;2.75;;
78674;SDS011;67990;59.826;30.108;2023-05-10T09:50:42;7.90;;;2.60;;
78674;SDS011;67990;59.826;30.108;2023-05-10T09:53:10;5.50;;;2.50;;
78674;SDS011;67990;59.826;30.108;2023-05-10T09:55:41;3.90;;;2.37;;
78674;SDS011;67990;59.826;30.108;2023-05-10T09:58:10;5.35;;;2.63;;
78674;SDS011;67990;59.826;30.108;2023-05-10T10:09:01;6.10;;;2.25;;
78674;SDS011;67990;59.826;30.108;2023-05-10T10:11:46;5.03;;;2.53;;
78674;SDS011;67990;59.826;30.108;2023-05-10T10:14:13;8.30;;;2.33;;
78674;SDS011;67990;59.826;30.108;2023-05-10T10:16:42;4.80;;;2.20;;
78674;SDS011;67990;59.826;30.108;2023-05-10T10:19:09;5.97;;;2.75;;
78674;SDS011;67990;59.826;30.108;2023-05-10T10:21:37;5.47;;;1.90;;
78674;SDS011;67990;59.826;30.108;2023-05-10T10:24:24;7.15;;;2.63;;
78674;SDS011;67990;59.826;30.108;2023-05-10T10:27:11;6.50;;;3.43;;
78674;SDS011;67990;59.826;30.108;2023-05-10T10:29:49;4.97;;;2.60;;
78674;SDS011;67990;59.826;30.108;2023-05-10T10:32:42;5.82;;;2.55;;
78674;SDS011;67990;59.826;30.108;2023-05-10T10:35:33;6.28;;;2.40;;
78674;SDS011;67990;59.826;30.108;2023-05-10T10:38:01;4.88;;;2.17;;
78674;SDS011;67990;59.826;30.108;2023-05-10T10:40:29;12.32;;;2.38;;
78674;SDS011;67990;59.826;30.108;2023-05-10T10:43:21;7.65;;;2.03;;
78674;SDS011;67990;59.826;30.108;2023-05-10T10:46:09;5.03;;;1.67;;
78674;SDS011;67990;59.826;30.108;2023-05-10T10:48:39;4.93;;;1.75;;
78674;SDS011;67990;59.826;30.108;2023-05-10T10:51:07;6.40;;;2.13;;
78674;SDS011;67990;59.826;30.108;2023-05-10T10:53:34;4.93;;;1.63;;
78674;SDS011;67990;59.826;30.108;2023-05-10T10:59:05;4.90;;;1.50;;
78674;SDS011;67990;59.826;30.108;2023-05-10T11:01:32;4.83;;;1.30;;
78674;SDS011;67990;59.826;30.108;2023-05-10T11:07:17;4.57;;;1.75;;
78674;SDS011;67990;59.826;30.108;2023-05-10T11:10:04;6.43;;;1.40;;
78674;SDS011;67990;59.826;30.108;2023-05-10T11:12:31;7.20;;;1.60;;
78674;SDS011;67990;59.826;30.108;2023-05-10T11:15:16;4.73;;;1.77;;
78674;SDS011;67990;59.826;30.108;2023-05-10T11:18:16;7.40;;;1.77;;
78674;SDS011;67990;59.826;30.108;2023-05-10T11:20:46;5.45;;;1.70;;
78674;SDS011;67990;59.826;30.108;2023-05-10T11:23:47;4.50;;;1.40;;
78674;SDS011;67990;59.826;30.108;2023-05-10T11:26:34;5.15;;;1.40;;
78674;SDS011;67990;59.826;30.108;2023-05-10T11:29:19;5.97;;;1.33;;
78674;SDS011;67990;59.826;30.108;2023-05-10T11:32:05;8.67;;;1.40;;
78674;SDS011;67990;59.826;30.108;2023-05-10T11:34:33;5.57;;;1.60;;
78674;SDS011;67990;59.826;30.108;2023-05-10T11:37:02;6.13;;;1.50;;
78674;SDS011;67990;59.826;30.108;2023-05-10T11:39:29;7.80;;;1.58;;
78674;SDS011;67990;59.826;30.108;2023-05-10T11:42:15;6.22;;;1.40;;
78674;SDS011;67990;59.826;30.108;2023-05-10T11:47:48;6.93;;;1.10;;
78674;SDS011;67990;59.826;30.108;2023-05-10T11:50:15;7.77;;;1.53;;
78674;SDS011;67990;59.826;30.108;2023-05-10T11:52:45;5.32;;;1.52;;
78674;SDS011;67990;59.826;30.108;2023-05-10T11:58:01;8.80;;;1.85;;
78674;SDS011;67990;59.826;30.108;2023-05-10T12:00:29;8.80;;;1.98;;
78674;SDS011;67990;59.826;30.108;2023-05-10T12:03:33;6.40;;;1.60;;
78674;SDS011;67990;59.826;30.108;2023-05-10T12:06:18;12.57;;;1.80;;
78674;SDS011;67990;59.826;30.108;2023-05-10T12:09:07;10.27;;;2.15;;
78674;SDS011;67990;59.826;30.108;2023-05-10T12:11:36;6.82;;;1.90;;
78674;SDS011;67990;59.826;30.108;2023-05-10T12:14:05;8.05;;;2.17;;
78674;SDS011;67990;59.826;30.108;2023-05-10T12:16:32;7.50;;;2.20;;
78674;SDS011;67990;59.826;30.108;2023-05-10T12:19:00;6.00;;;1.80;;
78674;SDS011;67990;59.826;30.108;2023-05-10T12:21:27;8.02;;;2.03;;
78674;SDS011;67990;59.826;30.108;2023-05-10T12:23:58;6.85;;;2.17;;
78674;SDS011;67990;59.826;30.108;2023-05-10T12:26:29;7.93;;;2.20;;
78674;SDS011;67990;59.826;30.108;2023-05-10T12:29:11;7.43;;;1.92;;
78674;SDS011;67990;59.826;30.108;2023-05-10T12:31:49;7.47;;;1.43;;
78674;SDS011;67990;59.826;30.108;2023-05-10T12:34:22;5.77;;;1.50;;
78674;SDS011;67990;59.826;30.108;2023-05-10T12:36:51;4.32;;;1.17;;
78674;SDS011;67990;59.826;30.108;2023-05-10T12:39:18;3.50;;;1.15;;
78674;SDS011;67990;59.826;30.108;2023-05-10T12:42:24;5.38;;;1.65;;
78674;SDS011;67990;59.826;30.108;2023-05-10T12:44:54;4.78;;;1.73;;
78674;SDS011;67990;59.826;30.108;2023-05-10T12:47:21;4.00;;;1.10;;
78674;SDS011;67990;59.826;30.108;2023-05-10T12:49:48;5.23;;;1.63;;
78674;SDS011;67990;59.826;30.108;2023-05-10T12:58:07;5.95;;;1.20;;
78674;SDS011;67990;59.826;30.108;2023-05-10T13:00:52;3.40;;;1.00;;
78674;SDS011;67990;59.826;30.108;2023-05-10T13:03:21;4.93;;;1.20;;
78674;SDS011;67990;59.826;30.108;2023-05-10T13:05:48;4.43;;;1.10;;
78674;SDS011;67990;59.826;30.108;2023-05-10T13:08:16;3.13;;;1.00;;
78674;SDS011;67990;59.826;30.108;2023-05-10T13:11:01;3.80;;;1.00;;
78674;SDS011;67990;59.826;30.108;2023-05-10T13:13:30;3.75;;;1.27;;
78674;SDS011;67990;59.826;30.108;2023-05-10T13:15:57;4.20;;;1.10;;
78674;SDS011;67990;59.826;30.108;2023-05-10T13:18:43;4.83;;;1.10;;
78674;SDS011;67990;59.826;30.108;2023-05-10T13:21:10;4.40;;;1.10;;
78674;SDS011;67990;59.826;30.108;2023-05-10T13:23:55;3.65;;;1.13;;
78674;SDS011;67990;59.826;30.108;2023-05-10T13:26:23;6.78;;;1.27;;
78674;SDS011;67990;59.826;30.108;2023-05-10T13:28:52;4.57;;;1.20;;
78674;SDS011;67990;59.826;30.108;2023-05-10T13:31:21;4.87;;;1.03;;
78674;SDS011;67990;59.826;30.108;2023-05-10T13:33:48;4.53;;;0.93;;
78674;SDS011;67990;59.826;30.108;2023-05-10T13:36:32;6.05;;;1.60;;
78674;SDS011;67990;59.826;30.108;2023-05-10T13:38:59;10.43;;;2.00;;
78674;SDS011;67990;59.826;30.108;2023-05-10T13:41:28;6.22;;;1.65;;
78674;SDS011;67990;59.826;30.108;2023-05-10T13:44:15;7.43;;;1.83;;
78674;SDS011;67990;59.826;30.108;2023-05-10T13:46:42;5.27;;;1.70;;
78674;SDS011;67990;59.826;30.108;2023-05-10T13:49:10;5.32;;;1.52;;
78674;SDS011;67990;59.826;30.108;2023-05-10T13:51:38;6.45;;;1.75;;
78674;SDS011;67990;59.826;30.108;2023-05-10T13:54:05;5.03;;;2.00;;
78674;SDS011;67990;59.826;30.108;2023-05-10T13:56:32;4.82;;;1.63;;
78674;SDS011;67990;59.826;30.108;2023-05-10T13:59:37;5.40;;;1.90;;
78674;SDS011;67990;59.826;30.108;2023-05-10T14:02:04;5.97;;;1.20;;
78674;SDS011;67990;59.826;30.108;2023-05-10T14:07:36;4.43;;;1.30;;
78674;SDS011;67990;59.826;30.108;2023-05-10T14:10:03;3.80;;;1.33;;
78674;SDS011;67990;59.826;30.108;2023-05-10T14:12:49;3.57;;;0.87;;
78674;SDS011;67990;59.826;30.108;2023-05-10T14:15:18;4.40;;;1.17;;
78674;SDS011;67990;59.826;30.108;2023-05-10T14:17:45;4.32;;;1.15;;
78674;SDS011;67990;59.826;30.108;2023-05-10T14:20:13;4.47;;;0.98;;
78674;SDS011;67990;59.826;30.108;2023-05-10T14:22:40;4.43;;;0.93;;
78674;SDS011;67990;59.826;30.108;2023-05-10T14:25:26;4.40;;;1.30;;
78674;SDS011;67990;59.826;30.108;2023-05-10T14:27:53;4.30;;;1.13;;
78674;SDS011;67990;59.826;30.108;2023-05-10T14:30:22;6.32;;;0.93;;
78674;SDS011;67990;59.826;30.108;2023-05-10T14:32:49;3.72;;;1.30;;
78674;SDS011;67990;59.826;30.108;2023-05-10T14:35:26;4.60;;;1.30;;
78674;SDS011;67990;59.826;30.108;2023-05-10T14:38:12;5.25;;;1.48;;
78674;SDS011;67990;59.826;30.108;2023-05-10T14:40:40;4.17;;;1.40;;
78674;SDS011;67990;59.826;30.108;2023-05-10T14:43:07;4.07;;;1.50;;
78674;SDS011;67990;59.826;30.108;2023-05-10T14:45:35;4.38;;;1.17;;
78674;SDS011;67990;59.826;30.108;2023-05-10T14:48:02;4.22;;;1.30;;
78674;SDS011;67990;59.826;30.108;2023-05-10T14:51:06;4.10;;;1.00;;
78674;SDS011;67990;59.826;30.108;2023-05-10T14:53:33;5.13;;;1.13;;
78674;SDS011;67990;59.826;30.108;2023-05-10T14:56:18;4.40;;;1.17;;
78674;SDS011;67990;59.826;30.108;2023-05-10T14:58:46;4.30;;;1.27;;
78674;SDS011;67990;59.826;30.108;2023-05-10T15:01:33;3.80;;;1.50;;
78674;SDS011;67990;59.826;30.108;2023-05-10T15:04:18;6.40;;;1.80;;
78674;SDS011;67990;59.826;30.108;2023-05-10T15:07:21;4.63;;;1.40;;
78674;SDS011;67990;59.826;30.108;2023-05-10T15:10:09;5.67;;;1.40;;
78674;SDS011;67990;59.826;30.108;2023-05-10T15:12:36;6.10;;;1.48;;
78674;SDS011;67990;59.826;30.108;2023-05-10T15:15:04;4.70;;;1.63;;
78674;SDS011;67990;59.826;30.108;2023-05-10T15:17:34;5.47;;;1.40;;
78674;SDS011;67990;59.826;30.108;2023-05-10T15:20:01;9.55;;;1.80;;
78674;SDS011;67990;59.826;30.108;2023-05-10T15:22:29;7.33;;;2.27;;
78674;SDS011;67990;59.826;30.108;2023-05-10T15:24:58;4.57;;;1.52;;
78674;SDS011;67990;59.826;30.108;2023-05-10T15:27:25;4.82;;;1.70;;
78674;SDS011;67990;59.826;30.108;2023-05-10T15:30:11;4.88;;;1.38;;
78674;SDS011;67990;59.826;30.108;2023-05-10T15:32:40;4.43;;;1.40;;
78674;SDS011;67990;59.826;30.108;2023-05-10T15:37:53;6.13;;;1.50;;
78674;SDS011;67990;59.826;30.108;2023-05-10T15:40:20;4.63;;;1.73;;
78674;SDS011;67990;59.826;30.108;2023-05-10T15:43:06;5.68;;;2.13;;
78674;SDS011;67990;59.826;30.108;2023-05-10T15:45:52;5.28;;;1.50;;
78674;SDS011;67990;59.826;30.108;2023-05-10T15:48:39;5.32;;;1.42;;
78674;SDS011;67990;59.826;30.108;2023-05-10T15:54:28;4.00;;;1.58;;
78674;SDS011;67990;59.826;30.108;2023-05-10T15:56:55;5.57;;;1.25;;
78674;SDS011;67990;59.826;30.108;2023-05-10T15:59:40;4.68;;;1.35;;
78674;SDS011;67990;59.826;30.108;2023-05-10T16:02:08;5.72;;;1.45;;
78674;SDS011;67990;59.826;30.108;2023-05-10T16:04:55;7.43;;;1.20;;
78674;SDS011;67990;59.826;30.108;2023-05-10T16:07:22;6.53;;;1.65;;
78674;SDS011;67990;59.826;30.108;2023-05-10T16:09:49;5.85;;;1.42;;
78674;SDS011;67990;59.826;30.108;2023-05-10T16:12:16;5.70;;;1.08;;
78674;SDS011;67990;59.826;30.108;2023-05-10T16:14:43;4.43;;;1.13;;
78674;SDS011;67990;59.826;30.108;2023-05-10T16:17:11;3.73;;;1.00;;
78674;SDS011;67990;59.826;30.108;2023-05-10T16:22:43;8.85;;;1.65;;
78674;SDS011;67990;59.826;30.108;2023-05-10T16:25:10;5.90;;;1.13;;
78674;SDS011;67990;59.826;30.108;2023-05-10T16:33:09;5.47;;;1.30;;
78674;SDS011;67990;59.826;30.108;2023-05-10T16:35:37;6.32;;;1.27;;
78674;SDS011;67990;59.826;30.108;2023-05-10T16:41:08;6.65;;;1.77;;
78674;SDS011;67990;59.826;30.108;2023-05-10T16:43:35;6.10;;;1.20;;
78674;SDS011;67990;59.826;30.108;2023-05-10T16:46:08;5.67;;;1.30;;
78674;SDS011;67990;59.826;30.108;2023-05-10T16:48:36;5.63;;;1.80;;
78674;SDS011;67990;59.826;30.108;2023-05-10T16:51:41;5.20;;;1.60;;
78674;SDS011;67990;59.826;30.108;2023-05-10T16:54:27;6.07;;;1.60;;
78674;SDS011;67990;59.826;30.108;2023-05-10T16:56:54;6.45;;;1.92;;
78674;SDS011;67990;59.826;30.108;2023-05-10T16:59:21;5.00;;;1.60;;